Time;durP1;ratioP1;P1;durP2;ratioP2;P2;SDS_P1;SDS_P2;PMS_P1;PMS_P2;Temp;Humidity;BMP_temperature;BMP_pressure;BME280_temperature;BME280_humidity;BME280_pressure;Samples;Min_cycle;Max_cycle;Signal;HPM_P1;HPM_P2
2021/09/27 00:00:44;;;;;;;22.30;14.10;;;;;;;9.18;87.22;97810.73;117084;1176;69286;-71
2021/09/27 00:03:14;;;;;;;19.30;13.40;;;;;;;9.16;87.26;97810.20;117131;1177;59149;-73
2021/09/27 00:05:45;;;;;;;16.80;13.50;;;;;;;9.15;87.66;97810.52;117102;1177;58687;-72
2021/09/27 00:08:37;;;;;;;17.30;12.50;;;;;;;9.15;87.10;97810.91;117015;1177;69975;-73
2021/09/27 00:11:22;;;;;;;17.10;12.80;;;;;;;9.16;87.30;97811.23;117038;1177;69129;-70
2021/09/27 00:14:01;;;;;;;21.60;14.00;;;;;;;9.18;86.95;97805.98;117122;1177;68173;-71
2021/09/27 00:16:31;;;;;;;17.10;12.00;;;;;;;9.20;86.44;97806.58;117048;1177;59716;-71
2021/09/27 00:19:01;;;;;;;21.00;14.30;;;;;;;9.20;87.35;97803.16;117055;1176;58716;-71
2021/09/27 00:21:34;;;;;;;18.30;14.70;;;;;;;9.17;86.23;97800.23;117067;1177;69766;-72
2021/09/27 00:24:05;;;;;;;18.10;14.10;;;;;;;9.13;86.26;97801.71;117066;1177;68453;-70
2021/09/27 00:26:35;;;;;;;16.10;12.50;;;;;;;9.12;87.00;97806.46;117174;1177;68405;-73
2021/09/27 00:29:07;;;;;;;16.60;12.90;;;;;;;9.11;87.36;97805.84;117069;1177;58765;-70
2021/09/27 00:31:37;;;;;;;18.40;13.10;;;;;;;9.10;86.75;97805.01;117237;1177;58713;-71
2021/09/27 00:34:07;;;;;;;15.80;12.10;;;;;;;9.07;86.73;97801.57;117165;1176;69697;-74
2021/09/27 00:36:37;;;;;;;15.60;11.40;;;;;;;9.08;87.57;97800.70;117108;1176;68431;-71
2021/09/27 00:39:07;;;;;;;16.80;12.70;;;;;;;9.07;88.06;97801.96;117091;1176;69042;-73
2021/09/27 00:41:38;;;;;;;20.40;12.20;;;;;;;9.06;87.74;97801.92;117221;1176;59077;-73
2021/09/27 00:44:09;;;;;;;18.00;12.20;;;;;;;9.00;86.83;97801.39;117155;1176;58930;-71
2021/09/27 00:46:40;;;;;;;18.10;13.10;;;;;;;8.92;86.59;97798.68;117139;1176;70547;-71
2021/09/27 00:49:09;;;;;;;18.20;13.80;;;;;;;8.89;87.01;97794.95;117011;1177;68430;-72
2021/09/27 00:51:43;;;;;;;23.30;13.20;;;;;;;8.87;86.72;97793.02;116982;1179;69358;-73
2021/09/27 00:54:23;;;;;;;16.60;12.60;;;;;;;8.85;86.96;97788.48;116991;1177;58726;-71
2021/09/27 00:57:14;;;;;;;19.80;15.40;;;;;;;8.85;87.31;97788.23;117118;1176;58710;-72
2021/09/27 00:59:49;;;;;;;19.80;15.80;;;;;;;8.84;87.07;97786.67;117185;1171;70592;-70
2021/09/27 01:02:19;;;;;;;24.60;17.30;;;;;;;8.86;86.68;97784.20;117189;1176;69023;-72
2021/09/27 01:04:49;;;;;;;21.70;16.30;;;;;;;8.89;88.25;97787.52;117012;1177;67307;-70
2021/09/27 01:07:29;;;;;;;26.70;14.40;;;;;;;8.89;88.98;97786.75;117084;1177;58760;-72
2021/09/27 01:10:07;;;;;;;20.90;15.20;;;;;;;8.89;89.09;97783.43;117093;1176;58780;-71
2021/09/27 01:12:51;;;;;;;18.40;13.00;;;;;;;8.89;88.57;97783.28;117190;1177;70027;-73
2021/09/27 01:15:53;;;;;;;16.10;13.40;;;;;;;8.87;88.42;97787.41;117100;1176;69161;-71
2021/09/27 01:18:47;;;;;;;18.80;13.90;;;;;;;8.85;87.78;97782.48;116856;1177;68156;-72
2021/09/27 01:21:54;;;;;;;17.70;13.90;;;;;;;8.86;88.49;97782.77;117002;1177;58690;-71
2021/09/27 01:24:37;;;;;;;16.80;13.10;;;;;;;8.80;87.90;97776.16;117235;1176;58664;-74
2021/09/27 01:27:41;;;;;;;17.00;12.80;;;;;;;8.74;87.21;97780.11;117227;1176;71679;-73
2021/09/27 01:30:26;;;;;;;15.00;10.40;;;;;;;8.64;86.43;97788.81;117246;1176;69175;-71
2021/09/27 01:33:06;;;;;;;15.00;11.30;;;;;;;8.52;86.50;97793.58;117172;1177;68423;-71
2021/09/27 01:35:51;;;;;;;17.20;11.10;;;;;;;8.44;86.83;97789.98;117077;1177;58727;-70
2021/09/27 01:38:36;;;;;;;15.20;11.50;;;;;;;8.38;86.80;97791.25;117137;1177;58697;-71
2021/09/27 01:41:36;;;;;;;13.60;9.60;;;;;;;8.32;86.98;97792.11;117157;1177;70457;-71
2021/09/27 01:44:11;;;;;;;19.80;9.70;;;;;;;8.28;87.66;97789.25;117186;1177;68077;-71
2021/09/27 01:47:00;;;;;;;19.90;14.10;;;;;;;8.26;87.26;97788.95;117193;1177;68456;-72
2021/09/27 01:49:55;;;;;;;20.60;14.20;;;;;;;8.26;87.58;97783.83;117304;1176;58744;-71
2021/09/27 01:52:40;;;;;;;20.10;15.50;;;;;;;8.28;87.22;97780.36;117068;1177;58662;-71
2021/09/27 01:55:38;;;;;;;20.00;15.20;;;;;;;8.32;88.65;97776.83;117012;1177;69894;-71
2021/09/27 01:58:22;;;;;;;26.70;16.20;;;;;;;8.33;87.88;97774.13;117031;1175;69106;-72
2021/09/27 02:01:00;;;;;;;21.30;15.00;;;;;;;8.35;87.35;97769.63;117079;1177;69116;-73
2021/09/27 02:03:48;;;;;;;18.90;14.40;;;;;;;8.35;87.46;97773.41;117109;1177;58778;-71
2021/09/27 02:06:44;;;;;;;;;;;;;;;8.34;87.35;97769.48;117161;1177;58729;-71
2021/09/27 02:09:24;;;;;;;16.40;12.80;;;;;;;8.29;87.23;97764.48;117153;1177;70533;-70
2021/09/27 02:12:02;;;;;;;15.90;12.50;;;;;;;8.25;86.95;97766.02;117130;1176;68105;-72
2021/09/27 02:14:55;;;;;;;19.30;12.00;;;;;;;8.16;86.64;97764.66;117160;1177;69266;-71
2021/09/27 02:17:59;;;;;;;14.20;10.90;;;;;;;8.09;86.93;97760.35;117082;1177;58793;-72
2021/09/27 02:20:50;;;;;;;13.40;9.80;;;;;;;8.04;86.96;97759.80;116975;1177;58726;-73
2021/09/27 02:23:26;;;;;;;13.80;10.60;;;;;;;8.00;88.36;97766.23;117150;1176;70787;-71
2021/09/27 02:25:57;;;;;;;15.90;12.10;;;;;;;7.96;88.07;97767.23;117141;1176;68443;-70
2021/09/27 02:28:28;;;;;;;16.60;12.50;;;;;;;7.94;87.43;97762.46;117168;1177;69229;-72
2021/09/27 02:31:30;;;;;;;15.90;11.80;;;;;;;7.93;87.39;97762.39;117173;1177;58688;-70
2021/09/27 02:34:28;;;;;;;17.80;12.20;;;;;;;7.95;88.67;97755.98;117049;1176;59004;-71
2021/09/27 02:37:02;;;;;;;18.70;12.40;;;;;;;7.95;87.82;97747.23;117025;1177;70573;-71
2021/09/27 02:39:42;;;;;;;19.80;13.20;;;;;;;7.98;89.31;97746.02;117108;1177;69080;-71
2021/09/27 02:42:30;;;;;;;12.90;11.30;;;;;;;7.95;88.44;97746.61;117089;1177;69301;-71
2021/09/27 02:45:01;;;;;;;15.10;11.50;;;;;;;7.93;88.65;97744.76;117090;1177;58733;-71
2021/09/27 02:47:40;;;;;;;;;;;;;;;7.93;89.44;97739.71;117180;1176;58726;-72
2021/09/27 02:50:12;;;;;;;16.30;11.80;;;;;;;7.92;89.35;97735.46;117062;1177;70557;-72
2021/09/27 02:52:43;;;;;;;16.40;13.10;;;;;;;7.93;89.35;97735.14;117276;1177;69251;-73
2021/09/27 02:55:19;;;;;;;20.20;15.20;;;;;;;7.93;88.62;97733.64;117097;1177;68503;-70
2021/09/27 02:57:57;;;;;;;17.80;12.20;;;;;;;7.94;88.09;97733.62;117118;1177;59521;-70
2021/09/27 03:01:12;;;;;;;14.60;10.40;;;;;;;7.88;87.87;97732.75;117151;1177;59539;-72
2021/09/27 03:04:11;;;;;;;17.80;11.10;;;;;;;7.83;88.20;97724.23;117059;1168;71436;-72
2021/09/27 03:06:56;;;;;;;15.40;11.50;;;;;;;7.77;87.83;97720.38;117001;1176;69217;-73
2021/09/27 03:10:06;;;;;;;21.10;13.50;;;;;;;7.74;88.63;97720.20;117074;1177;69338;-71
2021/09/27 03:13:07;;;;;;;36.10;12.00;;;;;;;7.74;88.42;97722.31;117016;1178;59598;-71
2021/09/27 03:15:57;;;;;;;64.20;14.50;;;;;;;7.76;88.20;97725.85;117033;1176;59519;-70
2021/09/27 03:18:40;;;;;;;45.00;14.30;;;;;;;7.72;88.83;97721.47;117047;1176;70648;-70
2021/09/27 03:21:09;;;;;;;39.70;14.30;;;;;;;7.67;88.54;97714.20;117069;1177;68405;-71
2021/09/27 03:24:10;;;;;;;41.20;15.00;;;;;;;7.64;88.13;97710.80;117095;1177;68529;-71
2021/09/27 03:27:07;;;;;;;18.40;11.90;;;;;;;7.62;88.68;97706.25;117059;1177;59501;-72
2021/09/27 03:29:58;;;;;;;15.30;11.20;;;;;;;7.58;88.96;97712.52;117087;1177;59516;-72
2021/09/27 03:32:59;;;;;;;15.50;11.50;;;;;;;7.54;89.30;97708.16;117188;1177;71391;-73
2021/09/27 03:35:55;;;;;;;73.50;13.40;;;;;;;7.53;90.07;97703.83;117156;1177;69089;-73
2021/09/27 03:38:57;;;;;;;14.20;10.90;;;;;;;7.53;90.29;97702.58;117114;1177;67369;-71
2021/09/27 03:41:44;;;;;;;17.00;11.40;;;;;;;7.54;90.31;97706.12;117052;1176;59452;-72
2021/09/27 03:44:50;;;;;;;12.80;10.80;;;;;;;7.55;89.87;97705.64;117065;1177;59512;-71
2021/09/27 03:47:47;;;;;;;14.10;8.90;;;;;;;7.56;90.66;97714.30;117027;1176;71201;-71
2021/09/27 03:50:32;;;;;;;47.30;14.30;;;;;;;7.50;90.73;97713.17;117114;1177;68397;-71
2021/09/27 03:53:09;;;;;;;324.10;18.70;;;;;;;7.40;89.43;97717.86;117022;1177;69202;-71
2021/09/27 03:56:09;;;;;;;306.30;16.50;;;;;;;7.25;88.93;97714.19;117047;1177;59532;-71
2021/09/27 03:58:47;;;;;;;170.50;15.60;;;;;;;7.13;88.86;97715.58;117047;1177;59551;-72
2021/09/27 04:01:50;;;;;;;38.50;13.90;;;;;;;7.08;90.02;97720.75;116992;1177;71381;-73
2021/09/27 04:04:51;;;;;;;29.20;12.20;;;;;;;7.00;89.66;97723.90;117113;1177;68381;-72
2021/09/27 04:07:26;;;;;;;75.60;14.50;;;;;;;6.92;89.68;97720.27;116902;1177;69269;-73
2021/09/27 04:10:00;;;;;;;25.40;12.00;;;;;;;6.93;90.65;97720.98;116900;1177;59516;-71
2021/09/27 04:12:54;;;;;;;29.70;11.70;;;;;;;6.99;91.21;97718.80;116989;1177;59526;-72
2021/09/27 04:15:42;;;;;;;20.60;13.50;;;;;;;6.98;90.84;97712.12;117231;1177;71405;-73
2021/09/27 04:18:26;;;;;;;22.70;14.60;;;;;;;6.91;90.05;97711.09;117018;1177;69113;-71
2021/09/27 04:21:19;;;;;;;16.70;12.90;;;;;;;6.88;89.83;97710.97;117090;1177;69069;-70
2021/09/27 04:23:56;;;;;;;18.20;14.10;;;;;;;6.91;89.57;97716.29;117034;1177;59529;-73
2021/09/27 04:26:37;;;;;;;32.90;16.30;;;;;;;7.00;89.78;97717.05;117131;1177;59490;-70
2021/09/27 04:29:15;;;;;;;;;;;;;;;7.09;89.95;97717.98;117102;1177;71393;-72
2021/09/27 04:31:53;;;;;;;92.90;21.20;;;;;;;7.17;90.19;97719.78;117060;1177;68559;-73
2021/09/27 04:34:44;;;;;;;88.30;25.00;;;;;;;7.33;90.55;97722.19;116997;1177;68447;-70
2021/09/27 04:37:17;;;;;;;36.20;21.90;;;;;;;7.40;90.56;97728.19;117086;1176;59536;-71
2021/09/27 04:39:48;;;;;;;43.90;17.60;;;;;;;7.43;90.60;97726.89;117145;1177;59541;-71
2021/09/27 04:42:32;;;;;;;38.90;17.90;;;;;;;7.41;90.91;97728.02;117087;1177;69559;-70
2021/09/27 04:45:08;;;;;;;47.60;16.50;;;;;;;7.39;90.93;97725.20;117032;1177;69200;-72
2021/09/27 04:47:52;;;;;;;28.90;15.90;;;;;;;7.44;91.09;97724.34;117055;1177;69038;-71
2021/09/27 04:50:50;;;;;;;23.90;17.80;;;;;;;7.55;90.95;97729.25;117040;1177;59513;-73
2021/09/27 04:53:41;;;;;;;14.00;11.00;;;;;;;7.74;90.90;97728.37;117057;1177;59532;-71
2021/09/27 04:56:24;;;;;;;11.50;9.20;;;;;;;7.92;90.33;97730.89;117041;1177;71422;-71
2021/09/27 04:59:02;;;;;;;23.30;10.30;;;;;;;8.06;90.01;97736.36;117103;1177;68574;-71
2021/09/27 05:02:00;;;;;;;12.90;9.40;;;;;;;8.18;89.99;97737.36;116968;1177;69217;-73
2021/09/27 05:04:53;;;;;;;14.40;9.20;;;;;;;8.35;88.80;97739.73;117104;1177;59558;-70
2021/09/27 05:07:49;;;;;;;10.60;8.20;;;;;;;8.40;88.12;97742.10;116892;1179;59511;-73
2021/09/27 05:10:24;;;;;;;10.90;8.50;;;;;;;8.47;86.71;97739.63;117021;1177;70627;-73
2021/09/27 05:13:24;;;;;;;12.80;7.70;;;;;;;8.64;86.28;97730.84;117083;1174;69049;-73
2021/09/27 05:16:08;;;;;;;11.30;8.50;;;;;;;8.84;84.54;97729.55;117044;1177;68517;-71
2021/09/27 05:18:46;;;;;;;10.40;8.30;;;;;;;9.12;85.25;97728.33;117237;1177;59548;-72
2021/09/27 05:21:33;;;;;;;10.20;7.40;;;;;;;9.42;84.86;97725.45;117003;1177;59520;-72
2021/09/27 05:24:20;;;;;;;10.20;7.00;;;;;;;9.79;83.62;97726.80;117046;1177;71404;-70
2021/09/27 05:26:51;;;;;;;8.70;6.00;;;;;;;10.20;83.12;97728.53;117033;1177;68570;-72
2021/09/27 05:29:48;;;;;;;9.70;6.10;;;;;;;10.51;82.40;97728.68;117106;1176;69251;-72
2021/09/27 05:32:22;;;;;;;9.60;7.10;;;;;;;10.93;82.65;97733.02;117046;1177;59535;-71
2021/09/27 05:35:24;;;;;;;9.70;6.70;;;;;;;11.28;82.54;97741.21;117020;1177;59503;-70
2021/09/27 05:38:29;;;;;;;12.70;6.10;;;;;;;11.62;79.62;97742.62;116998;1177;70656;-72
2021/09/27 05:41:07;;;;;;;10.70;7.00;;;;;;;11.81;78.00;97745.02;117070;1177;68793;-71
2021/09/27 05:43:55;;;;;;;10.30;6.60;;;;;;;12.07;75.50;97740.70;116985;1177;68755;-71
2021/09/27 05:46:51;;;;;;;8.90;6.60;;;;;;;12.37;76.31;97741.55;117151;1177;59535;-72
2021/09/27 05:49:39;;;;;;;13.60;9.90;;;;;;;12.64;74.97;97738.73;116931;1176;59504;-71
2021/09/27 05:52:14;;;;;;;14.90;9.40;;;;;;;12.55;73.57;97741.66;117043;1176;70646;-71
2021/09/27 05:55:20;;;;;;;12.40;9.20;;;;;;;12.67;74.20;97738.00;117010;1177;69156;-71
2021/09/27 05:58:03;;;;;;;13.30;8.60;;;;;;;12.81;74.06;97738.51;116730;1177;69484;-72
2021/09/27 06:00:55;;;;;;;15.40;8.70;;;;;;;12.97;72.87;97739.56;116961;1177;59545;-68
2021/09/27 06:03:40;;;;;;;13.60;8.80;;;;;;;13.22;71.06;97740.15;117200;1177;59500;-73
2021/09/27 06:06:21;;;;;;;13.10;7.80;;;;;;;13.71;71.58;97732.77;117046;1177;71448;-70
2021/09/27 06:08:57;;;;;;;18.20;9.50;;;;;;;13.97;69.32;97732.25;117070;1177;69055;-72
2021/09/27 06:11:50;;;;;;;18.00;8.10;;;;;;;14.18;69.47;97735.11;117089;1176;69226;-72
2021/09/27 06:14:19;;;;;;;10.40;7.20;;;;;;;14.33;68.88;97730.23;117007;1177;59539;-72
2021/09/27 06:17:09;;;;;;;12.20;6.90;;;;;;;14.57;68.18;97724.75;117077;1174;59524;-72
2021/09/27 06:20:06;;;;;;;8.80;6.70;;;;;;;14.99;66.02;97717.60;116977;1177;71467;-72
2021/09/27 06:23:09;;;;;;;10.60;6.70;;;;;;;15.39;64.43;97708.68;117086;1177;68476;-74
2021/09/27 06:25:51;;;;;;;14.20;6.70;;;;;;;15.85;63.26;97706.90;117078;1177;68254;-71
2021/09/27 06:28:29;;;;;;;10.80;6.30;;;;;;;16.24;62.99;97702.35;117088;1176;59501;-70
2021/09/27 06:31:30;;;;;;;12.40;5.90;;;;;;;16.55;61.98;97705.49;117093;1177;59551;-72
2021/09/27 06:34:10;;;;;;;16.10;6.50;;;;;;;16.85;61.97;97706.34;117182;1177;70589;-72
2021/09/27 06:36:39;;;;;;;13.60;6.50;;;;;;;16.95;61.33;97710.77;117173;1177;68461;-72
2021/09/27 06:39:23;;;;;;;9.70;6.50;;;;;;;17.32;61.30;97713.30;117180;1176;69284;-72
2021/09/27 06:41:54;;;;;;;10.00;6.70;;;;;;;17.58;60.44;97722.69;116960;1177;59539;-73
2021/09/27 06:44:24;;;;;;;15.00;7.90;;;;;;;17.71;60.15;97725.92;116920;1177;59539;-71
2021/09/27 06:46:54;;;;;;;9.80;7.20;;;;;;;17.77;59.62;97733.47;116948;1177;70443;-73
2021/09/27 06:49:23;;;;;;;14.60;7.20;;;;;;;18.02;59.64;97735.90;117174;1177;69378;-73
2021/09/27 06:51:55;;;;;;;13.40;6.40;;;;;;;18.20;59.20;97741.36;117093;1177;67358;-72
2021/09/27 06:54:25;;;;;;;13.70;6.40;;;;;;;18.40;58.15;97740.11;117151;1176;59485;-73
2021/09/27 06:56:54;;;;;;;15.90;7.30;;;;;;;18.48;58.01;97738.73;117201;1177;59529;-72
2021/09/27 06:59:23;;;;;;;10.10;6.20;;;;;;;18.46;58.14;97741.63;117082;1177;70400;-73
2021/09/27 07:02:04;;;;;;;13.40;6.80;;;;;;;18.45;58.32;97737.38;117034;1177;69166;-72
2021/09/27 07:04:33;;;;;;;;;;;;;;;18.57;58.33;97742.31;117016;1176;69695;-71
2021/09/27 07:07:02;;;;;;;11.00;6.90;;;;;;;18.76;58.34;97738.08;117055;1177;59893;-72
2021/09/27 07:09:31;;;;;;;14.70;7.60;;;;;;;19.26;56.58;97744.41;117125;1176;59532;-72
2021/09/27 07:12:01;;;;;;;10.90;7.00;;;;;;;19.29;56.78;97744.24;117059;1177;71160;-72
2021/09/27 07:14:30;;;;;;;11.80;6.80;;;;;;;19.62;55.42;97741.02;117118;1177;69684;-72
2021/09/27 07:16:59;;;;;;;8.60;6.00;;;;;;;19.85;55.08;97740.63;117108;1177;69277;-74
2021/09/27 07:19:29;;;;;;;17.60;6.30;;;;;;;20.36;53.71;97739.20;117081;1177;59645;-72
2021/09/27 07:21:58;;;;;;;11.30;6.60;;;;;;;20.76;52.84;97738.02;117027;1177;59519;-74
2021/09/27 07:24:26;;;;;;;11.80;6.60;;;;;;;20.97;51.37;97740.85;117057;1176;70715;-74
2021/09/27 07:26:55;;;;;;;10.50;6.00;;;;;;;21.02;50.81;97737.25;117073;1177;69331;-73
2021/09/27 07:29:25;;;;;;;10.90;5.80;;;;;;;21.38;49.97;97736.84;117059;1177;68305;-71
2021/09/27 07:31:54;;;;;;;7.80;5.00;;;;;;;20.98;49.69;97736.71;117048;1177;58834;-73
2021/09/27 07:34:23;;;;;;;9.80;5.50;;;;;;;21.14;49.41;97730.00;117047;1177;59510;-73
2021/09/27 07:36:53;;;;;;;9.20;5.10;;;;;;;21.24;49.03;97726.22;116940;1177;71288;-73
2021/09/27 07:39:21;;;;;;;8.30;4.90;;;;;;;21.48;48.49;97722.63;117088;1177;69779;-73
2021/09/27 07:41:52;;;;;;;10.30;4.60;;;;;;;21.59;47.57;97719.79;116992;1177;68689;-74
2021/09/27 07:44:23;;;;;;;8.10;4.30;;;;;;;21.98;47.27;97717.11;116881;1179;59541;-74
2021/09/27 07:46:53;;;;;;;7.90;4.50;;;;;;;22.45;46.27;97708.89;116903;1178;59574;-73
2021/09/27 07:49:28;;;;;;;8.80;4.50;;;;;;;22.63;45.52;97703.12;116831;1177;69988;-75
2021/09/27 07:52:21;;;;;;;7.20;4.60;;;;;;;23.11;44.79;97700.11;116630;1181;69238;-73
2021/09/27 07:54:52;;;;;;;6.90;4.50;;;;;;;23.43;44.71;97691.39;116948;1177;69082;-73
2021/09/27 07:57:22;;;;;;;9.30;4.50;;;;;;;23.38;43.86;97686.83;116801;1178;59526;-72
2021/09/27 07:59:53;;;;;;;7.10;4.20;;;;;;;23.79;43.84;97684.67;116869;1178;59484;-75
2021/09/27 08:02:28;;;;;;;5.80;4.40;;;;;;;23.85;43.59;97681.29;116940;1177;71196;-73
2021/09/27 08:04:58;;;;;;;7.90;4.10;;;;;;;24.53;43.23;97681.67;116935;1177;69236;-75
2021/09/27 08:07:29;;;;;;;7.20;4.90;;;;;;;24.76;42.86;97684.55;116787;1177;70616;-75
2021/09/27 08:10:06;;;;;;;8.10;4.40;;;;;;;25.40;41.17;97683.63;116863;1177;59545;-77
2021/09/27 08:12:37;;;;;;;6.20;4.40;;;;;;;25.65;40.17;97681.09;116978;1177;59024;-74
2021/09/27 08:15:13;;;;;;;9.70;4.50;;;;;;;26.30;39.26;97679.85;117104;1177;71387;-75
2021/09/27 08:17:45;;;;;;;8.00;4.40;;;;;;;26.23;38.06;97682.08;116845;1177;68742;-77
2021/09/27 08:20:20;;;;;;;7.10;4.20;;;;;;;26.57;37.75;97683.52;116887;1177;69728;-77
2021/09/27 08:22:50;;;;;;;11.50;4.10;;;;;;;26.73;37.97;97683.20;117031;1176;59532;-73
2021/09/27 08:25:22;;;;;;;8.90;4.20;;;;;;;26.67;37.47;97680.88;116996;1177;59905;-74
2021/09/27 08:27:59;;;;;;;8.40;4.20;;;;;;;26.97;36.85;97679.13;116817;1177;71514;-74
2021/09/27 08:30:39;;;;;;;6.60;4.00;;;;;;;26.99;37.26;97685.34;117008;1177;69106;-74
2021/09/27 08:33:08;;;;;;;9.10;3.90;;;;;;;26.87;36.69;97683.02;116948;1177;69139;-73
2021/09/27 08:35:37;;;;;;;7.40;3.70;;;;;;;27.20;36.26;97678.77;117089;1177;59559;-75
2021/09/27 08:38:09;;;;;;;5.20;3.50;;;;;;;27.59;33.93;97673.20;117085;1177;59552;-73
2021/09/27 08:41:04;;;;;;;7.20;3.90;;;;;;;27.49;34.02;97675.14;117069;1177;71368;-73
2021/09/27 08:43:52;;;;;;;6.50;4.10;;;;;;;27.36;34.24;97669.21;116982;1176;68478;-74
2021/09/27 08:46:51;;;;;;;8.50;4.40;;;;;;;27.10;34.70;97665.73;116923;1177;68432;-74
2021/09/27 08:49:55;;;;;;;10.30;4.20;;;;;;;26.59;35.43;97666.05;116901;1177;59545;-75
2021/09/27 08:52:30;;;;;;;6.80;3.80;;;;;;;27.06;35.59;97659.91;116621;1178;59519;-74
2021/09/27 08:55:02;;;;;;;5.90;3.60;;;;;;;27.23;35.26;97661.16;116978;1177;71345;-74
2021/09/27 08:57:55;;;;;;;9.70;4.00;;;;;;;27.66;34.79;97659.12;116951;1177;68986;-72
2021/09/27 09:00:44;;;;;;;6.90;4.20;;;;;;;28.08;34.32;97657.30;116917;1177;69235;-74
2021/09/27 09:03:38;;;;;;;8.00;3.90;;;;;;;28.16;33.57;97651.69;116854;1176;59712;-75
2021/09/27 09:06:37;;;;;;;6.20;4.00;;;;;;;28.50;32.75;97651.04;116945;1177;59860;-75
2021/09/27 09:09:37;;;;;;;5.40;3.60;;;;;;;28.56;32.82;97650.88;117071;1178;70909;-75
2021/09/27 09:12:30;;;;;;;7.00;3.80;;;;;;;28.92;32.28;97645.09;117011;1177;69118;-74
2021/09/27 09:15:16;;;;;;;5.20;3.70;;;;;;;28.76;32.02;97642.85;116943;1177;69242;-76
2021/09/27 09:17:51;;;;;;;9.00;3.80;;;;;;;28.71;32.15;97639.39;116885;1179;59493;-75
2021/09/27 09:20:39;;;;;;;6.50;3.60;;;;;;;28.64;32.15;97637.67;116722;1177;59542;-75
2021/09/27 09:23:13;;;;;;;6.40;3.90;;;;;;;28.77;32.35;97635.30;116964;1177;71176;-74
2021/09/27 09:25:47;;;;;;;9.80;3.80;;;;;;;29.13;31.56;97629.90;116766;1178;69296;-77
2021/09/27 09:28:19;;;;;;;8.20;3.70;;;;;;;29.31;31.36;97631.61;116779;1180;68597;-74
2021/09/27 09:31:07;;;;;;;7.20;3.70;;;;;;;29.32;31.58;97631.61;116961;1177;59562;-74
2021/09/27 09:34:02;;;;;;;4.70;3.40;;;;;;;29.71;31.23;97630.55;116955;1177;59558;-75
2021/09/27 09:36:33;;;;;;;10.10;3.70;;;;;;;29.45;31.22;97625.48;116926;1177;70381;-76
2021/09/27 09:39:33;;;;;;;7.40;3.70;;;;;;;29.90;31.42;97627.14;116990;1173;69243;-75
2021/09/27 09:42:14;;;;;;;7.10;3.60;;;;;;;30.37;29.86;97628.39;117078;1177;69281;-75
2021/09/27 09:44:46;;;;;;;4.60;3.30;;;;;;;30.28;29.70;97628.88;117010;1177;59545;-76
2021/09/27 09:47:18;;;;;;;5.20;3.50;;;;;;;30.48;29.67;97626.48;116958;1177;59557;-72
2021/09/27 09:50:04;;;;;;;6.40;4.20;;;;;;;30.70;29.56;97620.61;116928;1177;71231;-76
2021/09/27 09:52:39;;;;;;;6.90;3.50;;;;;;;30.74;28.87;97621.34;117049;1177;68762;-76
2021/09/27 09:55:36;;;;;;;6.40;3.60;;;;;;;30.71;28.62;97619.45;116880;1177;68618;-78
2021/09/27 09:58:12;;;;;;;6.40;3.80;;;;;;;30.31;29.25;97617.77;117138;1177;59522;-73
2021/09/27 10:00:50;;;;;;;6.20;3.60;;;;;;;30.28;29.28;97614.29;117131;1177;59592;-75
2021/09/27 10:03:29;;;;;;;7.20;3.40;;;;;;;30.35;29.32;97608.53;117064;1177;71116;-75
2021/09/27 10:06:13;;;;;;;7.20;3.40;;;;;;;30.30;29.57;97603.86;117036;1177;69163;-73
2021/09/27 10:08:54;;;;;;;4.90;3.40;;;;;;;30.96;27.75;97600.70;117011;1177;69175;-73
2021/09/27 10:11:52;;;;;;;6.20;3.90;;;;;;;30.72;28.03;97602.09;117196;1177;59621;-73
2021/09/27 10:14:33;;;;;;;5.30;3.50;;;;;;;30.71;28.59;97601.34;117022;1177;59561;-74
2021/09/27 10:17:30;;;;;;;5.20;3.30;;;;;;;31.08;27.67;97595.80;116995;1177;70617;-75
2021/09/27 10:20:13;;;;;;;6.30;3.50;;;;;;;31.46;26.57;97594.42;117180;1177;68818;-76
2021/09/27 10:22:58;;;;;;;5.10;3.30;;;;;;;31.42;27.39;97593.80;116938;1177;69385;-74
2021/09/27 10:25:40;;;;;;;6.30;3.00;;;;;;;31.38;27.53;97582.25;117030;1177;59551;-76
2021/09/27 10:28:13;;;;;;;6.20;3.30;;;;;;;31.69;26.65;97573.70;116979;1177;59537;-73
2021/09/27 10:30:54;;;;;;;6.80;3.60;;;;;;;31.60;26.19;97570.17;117219;1177;70552;-75
2021/09/27 10:33:28;;;;;;;4.70;3.10;;;;;;;31.33;26.08;97573.90;117228;1177;68444;-75
2021/09/27 10:36:07;;;;;;;4.70;3.40;;;;;;;30.91;26.84;97570.73;117051;1177;69528;-74
2021/09/27 10:38:48;;;;;;;8.90;3.20;;;;;;;31.48;26.70;97567.06;117067;1177;59490;-74
2021/09/27 10:41:35;;;;;;;4.80;3.40;;;;;;;32.04;25.41;97560.41;117000;1177;59533;-74
2021/09/27 10:44:11;;;;;;;5.80;3.20;;;;;;;32.10;24.98;97559.95;117108;1177;71932;-73
2021/09/27 10:46:44;;;;;;;7.50;3.50;;;;;;;32.12;25.19;97556.11;117055;1177;69180;-74
2021/09/27 10:49:24;;;;;;;3.80;2.90;;;;;;;32.56;24.78;97555.66;117184;1177;69292;-73
2021/09/27 10:51:55;;;;;;;;;;;;;;;32.69;23.68;97556.07;117028;1177;59608;-73
2021/09/27 10:54:35;;;;;;;3.80;3.00;;;;;;;32.54;24.49;97552.79;117047;1176;59596;-74
2021/09/27 10:57:13;;;;;;;5.00;3.10;;;;;;;31.83;26.57;97549.98;117246;1176;70420;-74
2021/09/27 10:59:52;;;;;;;5.30;3.30;;;;;;;32.31;25.39;97549.70;117077;1176;69167;-75
2021/09/27 11:02:39;;;;;;;5.20;3.30;;;;;;;32.76;24.71;97541.70;117249;1177;68277;-74
2021/09/27 11:05:14;;;;;;;5.00;3.50;;;;;;;32.99;24.07;97539.89;116950;1177;59554;-75
2021/09/27 11:07:53;;;;;;;5.70;3.10;;;;;;;33.21;23.63;97537.58;117265;1177;59536;-73
2021/09/27 11:10:29;;;;;;;4.50;3.00;;;;;;;32.86;23.95;97533.92;117071;1177;70460;-73
2021/09/27 11:12:58;;;;;;;6.20;3.30;;;;;;;32.96;23.95;97535.93;117075;1177;68702;-74
2021/09/27 11:15:33;;;;;;;5.50;3.20;;;;;;;32.83;23.85;97530.99;117139;1177;69227;-74
2021/09/27 11:18:26;;;;;;;6.20;3.30;;;;;;;32.71;24.89;97526.65;117013;1177;59535;-74
2021/09/27 11:21:16;;;;;;;4.80;2.80;;;;;;;32.81;24.18;97526.56;116873;1168;59532;-74
2021/09/27 11:23:46;;;;;;;;;;;;;;;33.06;23.80;97526.30;117089;1176;71170;-73
2021/09/27 11:26:15;;;;;;;4.00;2.80;;;;;;;33.04;23.96;97528.80;117017;1177;69227;-74
2021/09/27 11:29:20;;;;;;;5.40;3.20;;;;;;;32.94;24.01;97526.05;116991;1177;68311;-74
2021/09/27 11:32:11;;;;;;;9.50;3.50;;;;;;;33.55;22.90;97528.13;116982;1177;59557;-74
2021/09/27 11:34:51;;;;;;;4.40;2.80;;;;;;;32.55;24.39;97522.02;117007;1177;59504;-74
2021/09/27 11:37:54;;;;;;;6.20;3.50;;;;;;;32.25;25.21;97524.55;117011;1177;71753;-74
2021/09/27 11:40:23;;;;;;;5.80;3.20;;;;;;;32.40;24.77;97522.92;116975;1177;69153;-72
2021/09/27 11:43:11;;;;;;;4.50;3.10;;;;;;;32.45;24.38;97521.34;116932;1176;68528;-74
2021/09/27 11:45:49;;;;;;;5.40;3.20;;;;;;;32.56;24.16;97516.54;117032;1177;59515;-74
2021/09/27 11:48:18;;;;;;;4.70;2.90;;;;;;;32.65;24.35;97508.27;117116;1176;59500;-74
2021/09/27 11:50:53;;;;;;;8.80;3.90;;;;;;;33.02;24.50;97505.16;116889;1177;71889;-74
2021/09/27 11:53:48;;;;;;;7.80;3.80;;;;;;;33.35;23.50;97505.84;117010;1177;68714;-74
2021/09/27 11:56:35;;;;;;;7.70;3.20;;;;;;;33.39;23.72;97501.96;117036;1176;68460;-74
2021/09/27 11:59:27;;;;;;;5.10;3.10;;;;;;;33.87;22.65;97500.06;116990;1177;59526;-74
2021/09/27 12:02:08;;;;;;;5.80;3.30;;;;;;;33.81;22.46;97491.98;117058;1177;59487;-75
2021/09/27 12:05:25;;;;;;;6.50;3.30;;;;;;;34.14;22.42;97492.69;117006;1177;71355;-74
2021/09/27 12:08:07;;;;;;;4.40;3.10;;;;;;;33.88;22.57;97493.08;116770;1177;69295;-74
2021/09/27 12:10:45;;;;;;;5.10;3.30;;;;;;;33.96;22.59;97489.11;116970;1177;69031;-74
2021/09/27 12:13:22;;;;;;;5.20;3.10;;;;;;;33.28;22.69;97487.19;116901;1177;59568;-74
2021/09/27 12:15:55;;;;;;;4.20;3.00;;;;;;;33.21;22.87;97480.85;117028;1177;59481;-75
2021/09/27 12:18:44;;;;;;;7.90;3.00;;;;;;;32.32;24.26;97478.42;116964;1177;71455;-75
2021/09/27 12:21:26;;;;;;;5.70;3.30;;;;;;;32.53;23.91;97480.70;117034;1177;69009;-74
2021/09/27 12:24:08;;;;;;;3.90;3.10;;;;;;;32.10;24.63;97475.86;117091;1177;69373;-74
2021/09/27 12:26:41;;;;;;;6.00;3.10;;;;;;;32.47;24.41;97473.80;116980;1177;59514;-75
2021/09/27 12:29:10;;;;;;;4.00;3.20;;;;;;;33.07;23.48;97473.30;116955;1177;59536;-74